Cinderella 1 — SBLK — position and weather

sailwx.info

Track history (hours):
 
Tides and Currents Weather Stations Pressure Air Temp Water Temp Dewpoint Dewpoint Depression Visibility Wind Speed Wind Dir Waves Ship Positions

Cinderella 1

Last reported at 2016-Dec-05 20:33 UTC. Time now 2016-Dec-05 20:43 UTC.
Position N 59°20' E 018°05'.

Length 42 m; draft 1.1 m.

Type: Passenger vessel. MMSI: 265524530.

Date/timePositionNaut miles runAvg speedWind from/ knotsBaromVisibWave heightAir tempDewpointWater temp
2016-Dec-05 20:33N 59°20' E 018°05'0 0.0
2016-Dec-05 19:33N 59°20' E 018°05'0 0.0
2016-Dec-05 18:33N 59°20' E 018°05'0 0.0
2016-Dec-05 17:33N 59°20' E 018°05'0 0.0
2016-Dec-05 16:33N 59°20' E 018°05'0 0.0
2016-Dec-05 15:33N 59°20' E 018°05'0 0.0
2016-Dec-05 14:33N 59°20' E 018°05'0 0.0
2016-Dec-05 13:33N 59°20' E 018°05'0 0.0
2016-Dec-05 12:33N 59°20' E 018°05'0 0.0
2016-Dec-05 11:33N 59°20' E 018°05'0 0.0
2016-Dec-05 10:33N 59°20' E 018°05'0 0.0
2016-Dec-05 09:33N 59°20' E 018°05'0 0.0
2016-Dec-05 08:33N 59°20' E 018°05'0 0.0
2016-Dec-05 07:33N 59°20' E 018°05'0 0.0
2016-Dec-05 06:33N 59°20' E 018°05'0 0.0
2016-Dec-05 05:33N 59°20' E 018°05'0 0.0
2016-Dec-05 04:33N 59°20' E 018°05'0 0.0
2016-Dec-05 03:33N 59°20' E 018°05'0 0.0
2016-Dec-05 02:33N 59°20' E 018°05'0 0.0
2016-Dec-05 01:33N 59°20' E 018°05'0 0.0
2016-Dec-05 00:33N 59°20' E 018°05'0 0.0
2016-Dec-04 23:33N 59°20' E 018°05'0 0.0
2016-Dec-04 22:33N 59°20' E 018°05'0 0.0
2016-Dec-04 21:33N 59°20' E 018°05'0 0.0
2016-Dec-04 20:33N 59°20' E 018°05'0 0.0
2016-Dec-04 19:33N 59°20' E 018°05'0 0.0
2016-Dec-04 18:33N 59°20' E 018°05'1 1.0
2016-Dec-04 17:33N 59°19' E 018°06'1 1.0
2016-Dec-04 16:33N 59°20' E 018°05'9 6.7
2016-Dec-04 15:16N 59°23' E 018°20'811.9
2016-Dec-04 14:34N 59°20' E 018°05'2 1.7
2016-Dec-04 13:33N 59°19' E 018°09'6 5.8
2016-Dec-04 12:33N 59°22' E 018°19'7 7.4
2016-Dec-04 11:33N 59°20' E 018°05'0 0.2
2016-Dec-04 10:33N 59°20' E 018°05'0 0.2
2016-Dec-04 09:33N 59°20' E 018°05'0 0.0
2016-Dec-04 08:33N 59°20' E 018°05'0 0.0
2016-Dec-04 07:33N 59°20' E 018°05'0 0.0
2016-Dec-04 06:33N 59°20' E 018°05'0 0.0
2016-Dec-04 05:33N 59°20' E 018°05'0 0.0
2016-Dec-04 04:33N 59°20' E 018°05'0 0.0
2016-Dec-04 03:33N 59°20' E 018°05'0 0.0
2016-Dec-04 02:33N 59°20' E 018°05'0 0.0
2016-Dec-04 01:33N 59°20' E 018°05'0 0.0
2016-Dec-04 00:33N 59°20' E 018°05'0 0.0
2016-Dec-03 23:33N 59°20' E 018°05'0 0.0
2016-Dec-03 22:33N 59°20' E 018°05'5 5.4
2016-Dec-03 21:33N 59°22' E 018°15'3 1.4
2016-Dec-03 19:18N 59°23' E 018°20'811.2
2016-Dec-03 18:34N 59°20' E 018°05'1 0.8
2016-Dec-03 17:33N 59°19' E 018°06'1 1.0
2016-Dec-03 16:33N 59°20' E 018°05'9 7.0
2016-Dec-03 15:20N 59°23' E 018°20'911.0
2016-Dec-03 14:33N 59°20' E 018°05'4 4.2
2016-Dec-03 13:33N 59°20' E 018°13'3 2.9
2016-Dec-03 12:33N 59°22' E 018°17'7 6.9
2016-Dec-03 11:33N 59°20' E 018°05'0 0.0
2016-Dec-03 10:33N 59°20' E 018°05'0 0.0
2016-Dec-03 09:34N 59°20' E 018°05'0 0.0
2016-Dec-02 22:17N 59°20' E 018°05'810.5
2016-Dec-02 21:33N 59°23' E 018°19'6 1.4
2016-Dec-02 17:33N 59°19' E 018°10'3 2.6
2016-Dec-02 16:33N 59°20' E 018°05'0 0.0
2016-Dec-02 15:33N 59°20' E 018°05'0 0.0
2016-Dec-02 14:33N 59°20' E 018°05'0 0.0
2016-Dec-02 13:33N 59°20' E 018°05'0 0.0
2016-Dec-02 12:33N 59°20' E 018°05'0 0.0
2016-Dec-01 22:10N 59°20' E 018°05'711.0
2016-Dec-01 21:33N 59°22' E 018°17'5 1.2
2016-Dec-01 17:33N 59°19' E 018°10'3 2.7
2016-Dec-01 16:33N 59°20' E 018°05'0 0.0
2016-Nov-30 22:20N 59°20' E 018°05'7 9.0
2016-Nov-30 21:33N 59°23' E 018°17'5 1.1
2016-Nov-30 17:33N 59°20' E 018°11'3 3.1
2016-Nov-30 16:33N 59°20' E 018°05'0 0.0
2016-Nov-30 15:33N 59°20' E 018°05'0 0.0
2016-Nov-30 14:33N 59°20' E 018°05'0 0.0
2016-Nov-30 13:33N 59°20' E 018°05'0 0.0
2016-Nov-30 12:33N 59°20' E 018°05'0 0.0
2016-Nov-30 11:33N 59°20' E 018°05'0 0.0
2016-Nov-30 10:34N 59°20' E 018°05'0 0.0
2016-Nov-30 09:34N 59°20' E 018°05'0 0.0
2016-Nov-30 08:33N 59°20' E 018°05'0 0.0
2016-Nov-30 07:33N 59°20' E 018°05'0 0.0
2016-Nov-30 06:34N 59°20' E 018°05'0 0.0
2016-Nov-30 05:34N 59°20' E 018°05'0 0.0
2016-Nov-30 04:33N 59°20' E 018°05'0 0.0
2016-Nov-30 03:34N 59°20' E 018°05'0 0.0
2016-Nov-30 02:34N 59°20' E 018°05'0 0.0
2016-Nov-30 01:33N 59°20' E 018°05'0 0.0
2016-Nov-30 00:34N 59°20' E 018°05'0 0.0
2016-Nov-29 23:34N 59°20' E 018°05'0 0.0
2016-Nov-29 22:33N 59°20' E 018°05'5 5.2
2016-Nov-29 21:33N 59°21' E 018°15'3 0.8
2016-Nov-29 17:33N 59°19' E 018°10'3 2.5
2016-Nov-29 16:33N 59°20' E 018°05'0 0.0
2016-Nov-29 15:33N 59°20' E 018°05'0 0.0
2016-Nov-29 14:33N 59°20' E 018°05'0 0.0
2016-Nov-29 13:33N 59°20' E 018°05'0 0.0
2016-Nov-29 12:33N 59°20' E 018°05'0 0.0
2016-Nov-29 11:33N 59°20' E 018°05'0 0.0
2016-Nov-29 10:33N 59°20' E 018°05'0 0.0
2016-Nov-29 09:33N 59°20' E 018°05'0 0.0
2016-Nov-29 08:33N 59°20' E 018°05'0 0.0
2016-Nov-29 07:33N 59°20' E 018°05'0 0.0
2016-Nov-29 06:33N 59°20' E 018°05'0 0.0
2016-Nov-29 05:33N 59°20' E 018°05'0 0.0
2016-Nov-29 04:33N 59°20' E 018°05'0 0.0
2016-Nov-29 03:33N 59°20' E 018°05'0 0.0
2016-Nov-29 02:33N 59°20' E 018°05'0 0.0
2016-Nov-29 01:33N 59°20' E 018°05'0 0.0
2016-Nov-29 00:33N 59°20' E 018°05'0 0.0
2016-Nov-28 23:33N 59°20' E 018°05'0 0.0
2016-Nov-28 22:33N 59°20' E 018°05'0 0.0
2016-Nov-28 21:33N 59°20' E 018°05'0 0.0
2016-Nov-28 20:33N 59°20' E 018°05'0 0.0
2016-Nov-28 19:33N 59°20' E 018°05'0 0.0
2016-Nov-28 18:33N 59°20' E 018°05'0 0.0
2016-Nov-28 17:33N 59°20' E 018°05'0 0.0
2016-Nov-28 16:33N 59°20' E 018°05'0 0.0
2016-Nov-28 15:33N 59°20' E 018°05'0 0.0
2016-Nov-28 14:33N 59°20' E 018°05'0 0.0
2016-Nov-28 13:33N 59°20' E 018°05'0 0.0
2016-Nov-28 12:33N 59°20' E 018°05'0 0.0
2016-Nov-28 11:33N 59°20' E 018°05'0 0.0
2016-Nov-28 10:33N 59°20' E 018°05'0 0.0
2016-Nov-28 09:33N 59°20' E 018°05'0 0.0
2016-Nov-28 08:33N 59°20' E 018°05'0 0.0
2016-Nov-28 07:33N 59°20' E 018°05'0 0.0
2016-Nov-28 06:33N 59°20' E 018°05'0 0.0
2016-Nov-28 05:33N 59°20' E 018°05'0 0.0
2016-Nov-28 04:33N 59°20' E 018°05'0 0.0
2016-Nov-28 03:33N 59°20' E 018°05'0 0.0
2016-Nov-28 02:33N 59°20' E 018°05'0 0.0
2016-Nov-28 01:33N 59°20' E 018°05'0 0.0
2016-Nov-28 00:33N 59°20' E 018°05'0 0.0
2016-Nov-27 23:33N 59°20' E 018°05'0 0.0
2016-Nov-27 22:33N 59°20' E 018°05'0 0.0
2016-Nov-27 21:33N 59°20' E 018°05'0 0.0
2016-Nov-27 20:33N 59°20' E 018°05'0 0.0
2016-Nov-27 19:33N 59°20' E 018°05'0 0.0
2016-Nov-27 18:33N 59°20' E 018°05'0 0.0
2016-Nov-27 17:33N 59°20' E 018°05'0 0.0
2016-Nov-27 16:33N 59°20' E 018°05'0 0.0
2016-Nov-27 15:33N 59°20' E 018°05'0 0.0
2016-Nov-27 14:33N 59°20' E 018°05'0 0.0
2016-Nov-27 13:33N 59°20' E 018°05'0 0.0
2016-Nov-27 12:33N 59°20' E 018°05'0 0.0
2016-Nov-27 11:33N 59°20' E 018°05'0 0.0
2016-Nov-27 10:33N 59°20' E 018°05'0 0.0
2016-Nov-27 09:33N 59°20' E 018°05'0 0.0
2016-Nov-27 08:33N 59°20' E 018°05'0 0.0
2016-Nov-27 07:33N 59°20' E 018°05'0 0.0
2016-Nov-27 06:33N 59°20' E 018°05'0 0.0
2016-Nov-27 05:33N 59°20' E 018°05'0 0.0
2016-Nov-27 04:33N 59°20' E 018°05'0 0.0
2016-Nov-27 03:33N 59°20' E 018°05'0 0.0
2016-Nov-27 02:33N 59°20' E 018°05'0 0.0
2016-Nov-27 01:33N 59°20' E 018°05'0 0.0
2016-Nov-27 00:33N 59°20' E 018°05'0 0.0
2016-Nov-26 23:33N 59°20' E 018°05'0 0.0
2016-Nov-26 22:33N 59°20' E 018°05'8 7.5
2016-Nov-26 21:33N 59°23' E 018°18'2 0.6
2016-Nov-26 18:22N 59°24' E 018°21'8 9.4
2016-Nov-26 17:33N 59°19' E 018°10'3 2.7
2016-Nov-26 16:33N 59°20' E 018°05'0 0.0
2016-Nov-26 15:33N 59°20' E 018°05'0 0.2
2016-Nov-26 14:33N 59°20' E 018°05'0 0.2
2016-Nov-26 13:33N 59°20' E 018°05'0 0.0
2016-Nov-26 12:33N 59°20' E 018°05'0 0.0
2016-Nov-26 11:33N 59°20' E 018°05'0 0.0
2016-Nov-26 10:33N 59°20' E 018°05'0 0.0
2016-Nov-26 09:33N 59°20' E 018°05'0 0.0
2016-Nov-26 08:33N 59°20' E 018°05'0 0.0
2016-Nov-26 07:33N 59°20' E 018°05'0 0.0
2016-Nov-26 06:33N 59°20' E 018°05'0 0.0
2016-Nov-26 05:33N 59°20' E 018°05'0 0.0
2016-Nov-26 04:33N 59°20' E 018°05'0 0.0
2016-Nov-26 03:33N 59°20' E 018°05'0 0.0
2016-Nov-26 02:33N 59°20' E 018°05'0 0.0
2016-Nov-26 01:33N 59°20' E 018°05'0 0.0
2016-Nov-26 00:33N 59°20' E 018°05'0 0.0
2016-Nov-25 23:33N 59°20' E 018°05'0 0.0
2016-Nov-25 22:33N 59°20' E 018°05'6 5.9
2016-Nov-25 21:33N 59°22' E 018°16'  
Track history (hours):
 
Tides and Currents Weather Stations Pressure Air Temp Water Temp Dewpoint Dewpoint Depression Visibility Wind Speed Wind Dir Waves Ship Positions

Cinderella 1

Last reported at 2016-Dec-05 20:33 UTC. Time now 2016-Dec-05 20:43 UTC.
Position N 59°20' E 018°05'.

Length 42 m; draft 1.1 m.

Type: Passenger vessel. MMSI: 265524530.

Date/timePositionNaut miles runAvg speedWind from/ knotsBaromVisibWave heightAir tempDewpointWater temp
2016-Dec-05 20:33N 59°20' E 018°05'0 0.0
2016-Dec-05 19:33N 59°20' E 018°05'0 0.0
2016-Dec-05 18:33N 59°20' E 018°05'0 0.0
2016-Dec-05 17:33N 59°20' E 018°05'0 0.0
2016-Dec-05 16:33N 59°20' E 018°05'0 0.0
2016-Dec-05 15:33N 59°20' E 018°05'0 0.0
2016-Dec-05 14:33N 59°20' E 018°05'0 0.0
2016-Dec-05 13:33N 59°20' E 018°05'0 0.0
2016-Dec-05 12:33N 59°20' E 018°05'0 0.0
2016-Dec-05 11:33N 59°20' E 018°05'0 0.0
2016-Dec-05 10:33N 59°20' E 018°05'0 0.0
2016-Dec-05 09:33N 59°20' E 018°05'0 0.0
2016-Dec-05 08:33N 59°20' E 018°05'0 0.0
2016-Dec-05 07:33N 59°20' E 018°05'0 0.0
2016-Dec-05 06:33N 59°20' E 018°05'0 0.0
2016-Dec-05 05:33N 59°20' E 018°05'0 0.0
2016-Dec-05 04:33N 59°20' E 018°05'0 0.0
2016-Dec-05 03:33N 59°20' E 018°05'0 0.0
2016-Dec-05 02:33N 59°20' E 018°05'0 0.0
2016-Dec-05 01:33N 59°20' E 018°05'0 0.0
2016-Dec-05 00:33N 59°20' E 018°05'0 0.0
2016-Dec-04 23:33N 59°20' E 018°05'0 0.0
2016-Dec-04 22:33N 59°20' E 018°05'0 0.0
2016-Dec-04 21:33N 59°20' E 018°05'0 0.0
2016-Dec-04 20:33N 59°20' E 018°05'0 0.0
2016-Dec-04 19:33N 59°20' E 018°05'0 0.0
2016-Dec-04 18:33N 59°20' E 018°05'1 1.0
2016-Dec-04 17:33N 59°19' E 018°06'1 1.0
2016-Dec-04 16:33N 59°20' E 018°05'9 6.7
2016-Dec-04 15:16N 59°23' E 018°20'811.9
2016-Dec-04 14:34N 59°20' E 018°05'2 1.7
2016-Dec-04 13:33N 59°19' E 018°09'6 5.8
2016-Dec-04 12:33N 59°22' E 018°19'7 7.4
2016-Dec-04 11:33N 59°20' E 018°05'0 0.2
2016-Dec-04 10:33N 59°20' E 018°05'0 0.2
2016-Dec-04 09:33N 59°20' E 018°05'0 0.0
2016-Dec-04 08:33N 59°20' E 018°05'0 0.0
2016-Dec-04 07:33N 59°20' E 018°05'0 0.0
2016-Dec-04 06:33N 59°20' E 018°05'0 0.0
2016-Dec-04 05:33N 59°20' E 018°05'0 0.0
2016-Dec-04 04:33N 59°20' E 018°05'0 0.0
2016-Dec-04 03:33N 59°20' E 018°05'0 0.0
2016-Dec-04 02:33N 59°20' E 018°05'0 0.0
2016-Dec-04 01:33N 59°20' E 018°05'0 0.0
2016-Dec-04 00:33N 59°20' E 018°05'0 0.0
2016-Dec-03 23:33N 59°20' E 018°05'0 0.0
2016-Dec-03 22:33N 59°20' E 018°05'5 5.4
2016-Dec-03 21:33N 59°22' E 018°15'3 1.4
2016-Dec-03 19:18N 59°23' E 018°20'811.2
2016-Dec-03 18:34N 59°20' E 018°05'1 0.8
2016-Dec-03 17:33N 59°19' E 018°06'1 1.0
2016-Dec-03 16:33N 59°20' E 018°05'9 7.0
2016-Dec-03 15:20N 59°23' E 018°20'911.0
2016-Dec-03 14:33N 59°20' E 018°05'4 4.2
2016-Dec-03 13:33N 59°20' E 018°13'3 2.9
2016-Dec-03 12:33N 59°22' E 018°17'7 6.9
2016-Dec-03 11:33N 59°20' E 018°05'0 0.0
2016-Dec-03 10:33N 59°20' E 018°05'0 0.0
2016-Dec-03 09:34N 59°20' E 018°05'0 0.0
2016-Dec-02 22:17N 59°20' E 018°05'810.5
2016-Dec-02 21:33N 59°23' E 018°19'6 1.4
2016-Dec-02 17:33N 59°19' E 018°10'3 2.6
2016-Dec-02 16:33N 59°20' E 018°05'0 0.0
2016-Dec-02 15:33N 59°20' E 018°05'0 0.0
2016-Dec-02 14:33N 59°20' E 018°05'0 0.0
2016-Dec-02 13:33N 59°20' E 018°05'0 0.0
2016-Dec-02 12:33N 59°20' E 018°05'0 0.0
2016-Dec-01 22:10N 59°20' E 018°05'711.0
2016-Dec-01 21:33N 59°22' E 018°17'5 1.2
2016-Dec-01 17:33N 59°19' E 018°10'3 2.7
2016-Dec-01 16:33N 59°20' E 018°05'0 0.0
2016-Nov-30 22:20N 59°20' E 018°05'7 9.0
2016-Nov-30 21:33N 59°23' E 018°17'5 1.1
2016-Nov-30 17:33N 59°20' E 018°11'3 3.1
2016-Nov-30 16:33N 59°20' E 018°05'0 0.0
2016-Nov-30 15:33N 59°20' E 018°05'0 0.0
2016-Nov-30 14:33N 59°20' E 018°05'0 0.0
2016-Nov-30 13:33N 59°20' E 018°05'0 0.0
2016-Nov-30 12:33N 59°20' E 018°05'0 0.0
2016-Nov-30 11:33N 59°20' E 018°05'0 0.0
2016-Nov-30 10:34N 59°20' E 018°05'0 0.0
2016-Nov-30 09:34N 59°20' E 018°05'0 0.0
2016-Nov-30 08:33N 59°20' E 018°05'0 0.0
2016-Nov-30 07:33N 59°20' E 018°05'0 0.0
2016-Nov-30 06:34N 59°20' E 018°05'0 0.0
2016-Nov-30 05:34N 59°20' E 018°05'0 0.0
2016-Nov-30 04:33N 59°20' E 018°05'0 0.0
2016-Nov-30 03:34N 59°20' E 018°05'0 0.0
2016-Nov-30 02:34N 59°20' E 018°05'0 0.0
2016-Nov-30 01:33N 59°20' E 018°05'0 0.0
2016-Nov-30 00:34N 59°20' E 018°05'0 0.0
2016-Nov-29 23:34N 59°20' E 018°05'0 0.0
2016-Nov-29 22:33N 59°20' E 018°05'5 5.2
2016-Nov-29 21:33N 59°21' E 018°15'3 0.8
2016-Nov-29 17:33N 59°19' E 018°10'3 2.5
2016-Nov-29 16:33N 59°20' E 018°05'0 0.0
2016-Nov-29 15:33N 59°20' E 018°05'0 0.0
2016-Nov-29 14:33N 59°20' E 018°05'0 0.0
2016-Nov-29 13:33N 59°20' E 018°05'0 0.0
2016-Nov-29 12:33N 59°20' E 018°05'0 0.0
2016-Nov-29 11:33N 59°20' E 018°05'0 0.0
2016-Nov-29 10:33N 59°20' E 018°05'0 0.0
2016-Nov-29 09:33N 59°20' E 018°05'0 0.0
2016-Nov-29 08:33N 59°20' E 018°05'0 0.0
2016-Nov-29 07:33N 59°20' E 018°05'0 0.0
2016-Nov-29 06:33N 59°20' E 018°05'0 0.0
2016-Nov-29 05:33N 59°20' E 018°05'0 0.0
2016-Nov-29 04:33N 59°20' E 018°05'0 0.0
2016-Nov-29 03:33N 59°20' E 018°05'0 0.0
2016-Nov-29 02:33N 59°20' E 018°05'0 0.0
2016-Nov-29 01:33N 59°20' E 018°05'0 0.0
2016-Nov-29 00:33N 59°20' E 018°05'0 0.0
2016-Nov-28 23:33N 59°20' E 018°05'0 0.0
2016-Nov-28 22:33N 59°20' E 018°05'0 0.0
2016-Nov-28 21:33N 59°20' E 018°05'0 0.0
2016-Nov-28 20:33N 59°20' E 018°05'0 0.0
2016-Nov-28 19:33N 59°20' E 018°05'0 0.0
2016-Nov-28 18:33N 59°20' E 018°05'0 0.0
2016-Nov-28 17:33N 59°20' E 018°05'0 0.0
2016-Nov-28 16:33N 59°20' E 018°05'0 0.0
2016-Nov-28 15:33N 59°20' E 018°05'0 0.0
2016-Nov-28 14:33N 59°20' E 018°05'0 0.0
2016-Nov-28 13:33N 59°20' E 018°05'0 0.0
2016-Nov-28 12:33N 59°20' E 018°05'0 0.0
2016-Nov-28 11:33N 59°20' E 018°05'0 0.0
2016-Nov-28 10:33N 59°20' E 018°05'0 0.0
2016-Nov-28 09:33N 59°20' E 018°05'0 0.0
2016-Nov-28 08:33N 59°20' E 018°05'0 0.0
2016-Nov-28 07:33N 59°20' E 018°05'0 0.0
2016-Nov-28 06:33N 59°20' E 018°05'0 0.0
2016-Nov-28 05:33N 59°20' E 018°05'0 0.0
2016-Nov-28 04:33N 59°20' E 018°05'0 0.0
2016-Nov-28 03:33N 59°20' E 018°05'0 0.0
2016-Nov-28 02:33N 59°20' E 018°05'0 0.0
2016-Nov-28 01:33N 59°20' E 018°05'0 0.0
2016-Nov-28 00:33N 59°20' E 018°05'0 0.0
2016-Nov-27 23:33N 59°20' E 018°05'0 0.0
2016-Nov-27 22:33N 59°20' E 018°05'0 0.0
2016-Nov-27 21:33N 59°20' E 018°05'0 0.0
2016-Nov-27 20:33N 59°20' E 018°05'0 0.0
2016-Nov-27 19:33N 59°20' E 018°05'0 0.0
2016-Nov-27 18:33N 59°20' E 018°05'0 0.0
2016-Nov-27 17:33N 59°20' E 018°05'0 0.0
2016-Nov-27 16:33N 59°20' E 018°05'0 0.0
2016-Nov-27 15:33N 59°20' E 018°05'0 0.0
2016-Nov-27 14:33N 59°20' E 018°05'0 0.0
2016-Nov-27 13:33N 59°20' E 018°05'0 0.0
2016-Nov-27 12:33N 59°20' E 018°05'0 0.0
2016-Nov-27 11:33N 59°20' E 018°05'0 0.0
2016-Nov-27 10:33N 59°20' E 018°05'0 0.0
2016-Nov-27 09:33N 59°20' E 018°05'0 0.0
2016-Nov-27 08:33N 59°20' E 018°05'0 0.0
2016-Nov-27 07:33N 59°20' E 018°05'0 0.0
2016-Nov-27 06:33N 59°20' E 018°05'0 0.0
2016-Nov-27 05:33N 59°20' E 018°05'0 0.0
2016-Nov-27 04:33N 59°20' E 018°05'0 0.0
2016-Nov-27 03:33N 59°20' E 018°05'0 0.0
2016-Nov-27 02:33N 59°20' E 018°05'0 0.0
2016-Nov-27 01:33N 59°20' E 018°05'0 0.0
2016-Nov-27 00:33N 59°20' E 018°05'0 0.0
2016-Nov-26 23:33N 59°20' E 018°05'0 0.0
2016-Nov-26 22:33N 59°20' E 018°05'8 7.5
2016-Nov-26 21:33N 59°23' E 018°18'2 0.6
2016-Nov-26 18:22N 59°24' E 018°21'8 9.4
2016-Nov-26 17:33N 59°19' E 018°10'3 2.7
2016-Nov-26 16:33N 59°20' E 018°05'0 0.0
2016-Nov-26 15:33N 59°20' E 018°05'0 0.2
2016-Nov-26 14:33N 59°20' E 018°05'0 0.2
2016-Nov-26 13:33N 59°20' E 018°05'0 0.0
2016-Nov-26 12:33N 59°20' E 018°05'0 0.0
2016-Nov-26 11:33N 59°20' E 018°05'0 0.0
2016-Nov-26 10:33N 59°20' E 018°05'0 0.0
2016-Nov-26 09:33N 59°20' E 018°05'0 0.0
2016-Nov-26 08:33N 59°20' E 018°05'0 0.0
2016-Nov-26 07:33N 59°20' E 018°05'0 0.0
2016-Nov-26 06:33N 59°20' E 018°05'0 0.0
2016-Nov-26 05:33N 59°20' E 018°05'0 0.0
2016-Nov-26 04:33N 59°20' E 018°05'0 0.0
2016-Nov-26 03:33N 59°20' E 018°05'0 0.0
2016-Nov-26 02:33N 59°20' E 018°05'0 0.0
2016-Nov-26 01:33N 59°20' E 018°05'0 0.0
2016-Nov-26 00:33N 59°20' E 018°05'0 0.0
2016-Nov-25 23:33N 59°20' E 018°05'0 0.0
2016-Nov-25 22:33N 59°20' E 018°05'6 5.9
2016-Nov-25 21:33N 59°22' E 018°16'  

Dump ship's entire track history